Time;durP1;ratioP1;P1;durP2;ratioP2;P2;SDS_P1;SDS_P2;PMS_P1;PMS_P2;Temp;Humidity;BMP_temperature;BMP_pressure;BME280_temperature;BME280_humidity;BME280_pressure;Samples;Min_cycle;Max_cycle;Signal;HPM_P1;HPM_P2
2023/08/12 00:00:12;;;;;;;4.35;3.42;;;22.40;67.30;;;24.09;50.13;97912.59;5031749;28;20076;-58
2023/08/12 00:02:44;;;;;;;4.00;3.40;;;22.40;67.90;;;24.06;50.15;97913.06;5032330;28;20041;-54
2023/08/12 00:05:12;;;;;;;4.43;3.03;;;22.30;68.20;;;24.01;50.21;97900.19;5031863;28;20474;-57
2023/08/12 00:07:43;;;;;;;5.43;3.70;;;22.30;68.50;;;24.00;50.14;97898.56;5032268;28;20048;-58
2023/08/12 00:10:12;;;;;;;3.97;3.58;;;22.30;68.40;;;24.02;50.25;97896.44;5032840;28;20045;-56
2023/08/12 00:12:40;;;;;;;4.38;3.63;;;22.40;68.20;;;23.98;50.22;97890.66;5032331;28;20060;-57
2023/08/12 00:15:10;;;;;;;4.88;3.40;;;22.30;68.50;;;23.95;50.49;97893.84;5033850;28;20063;-57
2023/08/12 00:17:41;;;;;;;4.20;3.75;;;22.30;69.00;;;23.94;50.60;97891.34;5033301;28;20050;-53
2023/08/12 00:20:10;;;;;;;3.72;3.17;;;22.30;69.20;;;23.92;50.33;97879.91;5030778;28;20049;-56
2023/08/12 00:22:40;;;;;;;4.70;3.40;;;22.20;68.80;;;23.91;50.70;97884.50;5015687;28;20046;-58
2023/08/12 00:25:08;;;;;;;3.78;3.10;;;22.30;69.00;;;23.90;50.40;97871.97;5032164;28;20045;-56
2023/08/12 00:27:37;;;;;;;8.55;3.53;;;22.20;68.60;;;23.90;50.29;97884.75;5031560;28;20057;-55
2023/08/12 00:30:05;;;;;;;5.15;4.00;;;22.20;68.40;;;23.87;50.10;97874.38;5031170;28;20048;-55
2023/08/12 00:32:33;;;;;;;5.38;3.70;;;22.20;67.90;;;23.87;49.80;97875.19;5032843;28;20349;-55
2023/08/12 00:35:01;;;;;;;5.18;3.75;;;22.30;67.50;;;23.88;49.83;97868.66;5032917;28;20037;-56
2023/08/12 00:37:29;;;;;;;5.53;4.03;;;22.30;67.10;;;23.87;49.77;97872.47;5033298;28;20041;-54
2023/08/12 00:39:57;;;;;;;3.78;3.33;;;22.30;66.90;;;23.88;49.71;97867.84;5030992;28;20045;-55
2023/08/12 00:42:24;;;;;;;5.22;3.60;;;22.30;66.70;;;23.88;49.55;97867.84;5031509;28;20041;-57
2023/08/12 00:44:52;;;;;;;4.03;3.60;;;22.30;67.40;;;23.86;49.66;97875.44;5031752;28;20073;-51
2023/08/12 00:47:21;;;;;;;4.32;3.70;;;22.30;66.70;;;23.84;49.44;97867.50;5032468;28;20045;-56
2023/08/12 00:49:50;;;;;;;3.80;3.40;;;22.30;66.50;;;23.84;49.41;97870.22;5014647;28;20527;-55
2023/08/12 00:52:18;;;;;;;4.35;3.55;;;22.20;66.50;;;23.82;49.40;97863.38;5030893;28;20510;-57
2023/08/12 00:54:46;;;;;;;4.88;4.05;;;22.20;66.30;;;23.80;49.34;97862.81;5031294;28;20068;-56
2023/08/12 00:57:14;;;;;;;3.80;3.17;;;22.20;66.20;;;23.80;49.41;97862.81;5012419;28;20045;-54
2023/08/12 00:59:44;;;;;;;4.30;3.30;;;22.10;66.30;;;23.77;49.42;97859.47;5029971;28;20662;-57
2023/08/12 01:02:13;;;;;;;4.45;3.50;;;22.10;66.40;;;23.76;49.62;97857.00;5032468;28;20045;-57
2023/08/12 01:04:40;;;;;;;4.20;3.80;;;22.10;66.50;;;23.74;49.67;97857.22;5030260;28;20048;-54
2023/08/12 01:07:08;;;;;;;3.80;3.35;;;22.10;66.90;;;23.72;49.80;97853.91;5030637;28;20049;-57
2023/08/12 01:09:37;;;;;;;5.70;3.53;;;22.10;67.10;;;23.71;49.49;97846.84;5013748;28;20048;-55
2023/08/12 01:12:41;;;;;;;4.88;4.45;;;22.10;67.10;;;23.67;49.68;97845.69;5030932;28;20046;-57
2023/08/12 01:15:17;;;;;;;3.92;3.30;;;22.10;67.10;;;23.73;49.67;97846.59;5037802;28;20060;-57
2023/08/12 01:17:51;;;;;;;5.78;3.20;;;22.10;66.70;;;23.76;49.79;97846.13;5031112;28;20045;-56
2023/08/12 01:20:24;;;;;;;5.25;4.40;;;22.20;66.20;;;23.80;49.50;97841.88;5023145;28;20049;-56
2023/08/12 01:23:08;;;;;;;;;;;22.30;65.90;;;23.82;49.49;97834.31;5031270;28;20049;-55
2023/08/12 01:25:36;;;;;;;;;;;22.40;65.40;;;23.88;49.26;97833.31;5024134;28;19925;-57
2023/08/12 01:28:05;;;;;;;4.53;3.35;;;22.30;65.40;;;23.91;49.03;97827.41;5038451;28;19928;-57
2023/08/12 01:30:53;;;;;;;5.15;3.75;;;22.40;65.40;;;23.91;49.27;97830.13;5019120;28;20285;-52
2023/08/12 01:33:46;;;;;;;5.35;3.85;;;22.40;65.20;;;23.90;49.21;97827.66;5029528;28;20048;-57
2023/08/12 01:36:19;;;;;;;4.35;3.95;;;22.40;65.00;;;23.94;49.15;97817.94;5030583;28;20025;-56
2023/08/12 01:38:50;;;;;;;5.38;3.60;;;22.50;65.30;;;23.94;48.94;97818.78;5013980;28;20046;-55
2023/08/12 01:41:19;;;;;;;16.13;4.00;;;22.50;65.00;;;23.97;49.39;97825.63;5030003;28;20075;-57
2023/08/12 01:43:47;;;;;;;4.47;3.63;;;22.60;65.00;;;24.00;49.27;97821.59;5014297;28;20041;-57
2023/08/12 01:46:16;;;;;;;4.38;3.95;;;22.60;65.10;;;23.99;49.25;97815.34;5022538;28;20034;-58
2023/08/12 01:48:44;;;;;;;4.90;4.10;;;22.50;65.30;;;23.98;49.35;97819.09;5029850;28;20049;-56
2023/08/12 01:51:11;;;;;;;4.80;3.95;;;22.50;65.70;;;23.95;49.51;97820.44;5031367;28;20038;-57
2023/08/12 01:53:39;;;;;;;5.00;4.13;;;22.40;65.80;;;23.96;49.41;97815.81;5022102;28;20528;-53
2023/08/12 01:56:06;;;;;;;6.28;4.25;;;22.50;65.80;;;23.95;49.46;97823.16;5029930;28;20053;-56
2023/08/12 01:58:36;;;;;;;5.20;3.92;;;22.40;66.10;;;23.92;49.56;97812.78;5022630;28;20041;-54
2023/08/12 02:01:03;;;;;;;4.15;3.60;;;22.30;66.50;;;23.89;49.82;97820.59;5030636;28;20045;-57
2023/08/12 02:03:31;;;;;;;4.13;3.60;;;22.30;66.90;;;23.85;49.85;97820.25;5030462;28;20041;-58
2023/08/12 02:05:59;;;;;;;6.30;3.40;;;22.30;67.40;;;23.85;49.94;97814.00;5029567;28;20049;-56
2023/08/12 02:08:26;;;;;;;10.70;4.80;;;22.30;67.30;;;23.83;50.12;97818.84;5030480;28;20037;-58
2023/08/12 02:10:54;;;;;;;5.13;3.92;;;22.20;67.30;;;23.82;50.02;97822.63;5031327;28;20041;-56
2023/08/12 02:13:22;;;;;;;4.18;3.67;;;22.30;67.30;;;23.85;50.08;97819.41;5030864;28;20049;-56
2023/08/12 02:15:50;;;;;;;5.47;3.70;;;22.40;67.10;;;23.87;49.95;97809.13;5029716;28;20046;-55
2023/08/12 02:18:17;;;;;;;4.88;3.80;;;22.40;66.80;;;23.93;49.96;97810.88;5031432;28;20064;-55
2023/08/12 02:20:48;;;;;;;4.60;4.20;;;22.50;66.60;;;23.98;49.87;97817.22;5030746;28;20061;-49
2023/08/12 02:23:15;;;;;;;5.50;4.05;;;22.60;66.20;;;24.02;49.75;97816.72;5031738;28;20045;-46
2023/08/12 02:25:43;;;;;;;4.53;3.95;;;22.60;66.00;;;24.03;49.65;97812.94;5031185;28;20489;-48
2023/08/12 02:28:11;;;;;;;4.63;3.70;;;22.60;66.10;;;24.04;49.84;97818.16;5031031;28;20065;-48
2023/08/12 02:30:38;;;;;;;4.63;4.03;;;22.60;66.20;;;24.07;49.76;97814.94;5013970;28;20052;-49
2023/08/12 02:33:06;;;;;;;5.78;4.45;;;22.60;66.30;;;24.08;50.00;97811.16;5029955;28;20034;-50
2023/08/12 02:35:33;;;;;;;4.10;3.45;;;22.60;66.50;;;24.08;49.85;97803.00;5029684;28;20049;-48
2023/08/12 02:38:04;;;;;;;4.82;3.67;;;22.60;66.70;;;24.08;49.82;97802.16;5030858;28;20044;-48
2023/08/12 02:40:31;;;;;;;4.82;4.10;;;22.50;66.70;;;24.05;49.79;97811.63;5029088;28;20061;-48
2023/08/12 02:42:59;;;;;;;5.47;4.03;;;22.50;66.70;;;24.04;50.00;97801.84;5031660;28;20072;-49
2023/08/12 02:45:26;;;;;;;4.97;4.05;;;22.50;66.90;;;24.02;50.06;97808.56;5050092;28;20065;-48
2023/08/12 02:47:54;;;;;;;4.10;3.70;;;22.40;67.20;;;24.02;50.23;97801.25;5033969;28;20046;-51
2023/08/12 02:50:22;;;;;;;4.65;4.15;;;22.40;67.20;;;24.00;50.05;97803.41;5033534;28;20056;-49
2023/08/12 02:52:50;;;;;;;6.20;4.35;;;22.40;67.40;;;23.98;50.22;97800.91;5034216;28;20053;-50
2023/08/12 02:55:17;;;;;;;4.95;4.30;;;22.40;67.40;;;23.98;50.52;97803.63;5033794;28;20419;-47
2023/08/12 02:57:45;;;;;;;6.95;3.78;;;22.40;67.80;;;23.99;50.60;97807.19;5033308;28;20053;-48
2023/08/12 03:00:13;;;;;;;5.28;4.28;;;22.40;68.30;;;23.95;50.64;97804.09;5033459;28;20049;-48
2023/08/12 03:02:44;;;;;;;4.28;3.88;;;22.40;68.20;;;23.93;50.62;97800.81;5024575;28;20053;-48
2023/08/12 03:05:12;;;;;;;5.13;4.38;;;22.20;68.70;;;23.92;50.61;97798.34;5034025;28;20041;-48
2023/08/12 03:07:40;;;;;;;5.78;4.40;;;22.30;68.70;;;23.90;50.66;97798.56;5025561;28;20049;-50
2023/08/12 03:10:08;;;;;;;5.13;4.30;;;22.30;69.00;;;23.88;50.56;97789.84;5032773;28;20049;-50
2023/08/12 03:12:36;;;;;;;5.47;4.63;;;22.30;68.70;;;23.87;50.80;97787.38;5034093;28;20048;-47
2023/08/12 03:15:07;;;;;;;4.20;3.80;;;22.20;69.00;;;23.86;50.92;97788.44;5032864;28;20045;-46
2023/08/12 03:17:35;;;;;;;6.22;4.40;;;22.20;69.20;;;23.82;51.19;97788.09;5033250;28;20424;-49
2023/08/12 03:20:05;;;;;;;6.97;5.05;;;22.20;69.30;;;23.81;51.15;97782.88;5032372;28;20041;-49
2023/08/12 03:22:33;;;;;;;6.00;4.22;;;22.20;69.60;;;23.81;51.31;97788.34;5032990;28;20053;-49
2023/08/12 03:25:00;;;;;;;5.60;4.75;;;22.10;69.80;;;23.80;51.19;97786.69;5034150;28;20048;-50
2023/08/12 03:27:29;;;;;;;5.30;4.40;;;22.10;69.80;;;23.76;51.48;97787.13;5034208;28;20049;-48
2023/08/12 03:29:57;;;;;;;5.88;3.63;;;22.10;70.40;;;23.72;51.63;97791.41;5033171;28;20041;-46
2023/08/12 03:32:25;;;;;;;5.13;4.60;;;22.10;70.60;;;23.70;51.71;97792.72;5034116;28;20533;-48
2023/08/12 03:34:53;;;;;;;4.50;3.80;;;22.00;70.70;;;23.66;51.57;97789.66;5031995;28;20138;-52
2023/08/12 03:37:21;;;;;;;7.00;4.20;;;22.00;70.70;;;23.64;51.69;97804.56;5033887;28;20061;-47
2023/08/12 03:39:51;;;;;;;4.10;3.72;;;22.00;70.70;;;23.54;51.85;97814.16;5032516;28;20045;-51
2023/08/12 03:42:19;;;;;;;4.95;4.45;;;22.00;71.00;;;23.48;52.07;97806.97;5032608;28;20056;-52
2023/08/12 03:44:47;;;;;;;5.25;4.35;;;21.80;72.00;;;23.41;52.39;97798.13;5032139;28;20497;-48
2023/08/12 03:47:21;;;;;;;4.68;4.18;;;21.70;72.50;;;23.35;52.55;97804.53;5032932;28;20052;-49
2023/08/12 03:49:49;;;;;;;5.80;4.65;;;21.60;73.20;;;23.28;52.55;97795.69;5009511;28;20045;-56
2023/08/12 03:52:17;;;;;;;4.80;4.32;;;21.50;74.30;;;23.19;52.89;97796.06;5015648;28;20048;-56
2023/08/12 03:54:44;;;;;;;4.72;4.20;;;21.40;75.40;;;23.14;53.22;97801.38;5032512;28;20038;-56
2023/08/12 03:57:12;;;;;;;9.27;4.20;;;21.30;75.60;;;23.10;53.42;97802.91;5033693;28;20096;-54
2023/08/12 03:59:40;;;;;;;9.38;5.07;;;21.20;75.70;;;23.09;53.12;97798.56;5046301;28;20049;-55
2023/08/12 04:02:07;;;;;;;5.70;4.53;;;21.30;75.90;;;23.08;53.22;97793.38;5032186;28;20041;-53
2023/08/12 04:04:35;;;;;;;6.15;4.70;;;21.30;75.80;;;23.10;53.56;97799.38;5032328;28;20060;-55
2023/08/12 04:07:03;;;;;;;10.73;4.50;;;21.40;75.60;;;23.09;53.60;97798.56;5033484;28;20038;-57
2023/08/12 04:09:31;;;;;;;5.28;4.47;;;21.30;75.50;;;23.09;53.43;97798.56;5031448;28;20497;-56
2023/08/12 04:11:59;;;;;;;5.10;4.55;;;21.30;75.60;;;23.09;53.79;97787.69;5031774;28;20037;-55
2023/08/12 04:14:26;;;;;;;6.32;5.03;;;21.40;75.70;;;23.09;53.45;97784.13;5033393;28;20048;-58
2023/08/12 04:16:54;;;;;;;6.57;5.20;;;21.40;75.40;;;23.12;53.71;97792.63;5031695;28;20050;-56
2023/08/12 04:19:21;;;;;;;5.43;4.25;;;21.50;75.40;;;23.14;53.62;97792.41;5032943;28;20045;-54
2023/08/12 04:21:49;;;;;;;5.40;4.00;;;21.50;75.40;;;23.17;53.77;97795.47;5031514;28;20045;-56
2023/08/12 04:24:17;;;;;;;6.47;5.00;;;21.50;75.40;;;23.18;53.86;97802.53;5015497;28;20425;-56
2023/08/12 04:26:45;;;;;;;5.15;4.65;;;21.60;75.30;;;23.19;53.72;97800.66;5031259;28;20081;-53
2023/08/12 04:29:13;;;;;;;5.75;5.15;;;21.60;75.50;;;23.21;53.75;97797.72;5031347;28;20033;-55
2023/08/12 04:31:42;;;;;;;5.28;4.78;;;21.60;75.80;;;23.22;53.90;97802.88;5031957;28;20349;-53
2023/08/12 04:34:10;;;;;;;5.43;4.47;;;21.60;75.60;;;23.24;54.08;97814.34;5015385;28;20409;-55
2023/08/12 04:36:37;;;;;;;6.57;4.68;;;21.60;75.60;;;23.28;53.77;97817.41;5031150;28;20061;-55
2023/08/12 04:39:05;;;;;;;5.95;4.53;;;21.70;75.60;;;23.30;53.85;97807.97;5047754;28;20532;-55
2023/08/12 04:41:33;;;;;;;6.53;4.75;;;21.70;75.30;;;23.32;53.83;97810.44;5031923;28;20053;-56
2023/08/12 04:44:05;;;;;;;6.72;4.43;;;21.70;75.30;;;23.33;53.96;97806.66;5031700;28;20060;-54
2023/08/12 04:46:33;;;;;;;5.00;4.50;;;21.80;75.40;;;23.37;54.10;97811.38;5030859;28;20057;-56
2023/08/12 04:49:01;;;;;;;4.80;4.20;;;21.80;75.70;;;23.39;53.83;97813.84;5031135;28;20048;-55
2023/08/12 04:51:29;;;;;;;4.70;4.10;;;21.80;75.30;;;23.41;53.68;97810.91;5031624;28;20421;-57
2023/08/12 04:53:57;;;;;;;8.82;4.93;;;21.80;75.30;;;23.42;54.02;97810.66;5030837;28;20045;-55
2023/08/12 04:56:28;;;;;;;4.53;3.80;;;21.80;75.60;;;23.43;54.28;97811.47;5030786;28;20185;-57
2023/08/12 04:58:56;;;;;;;7.50;6.82;;;21.80;76.30;;;23.45;54.50;97806.63;5031285;28;20070;-55
2023/08/12 05:01:24;;;;;;;5.72;5.20;;;21.80;77.00;;;23.46;54.86;97794.69;5032014;28;20048;-57
2023/08/12 05:03:52;;;;;;;7.07;4.82;;;21.90;77.70;;;23.47;55.07;97801.78;5022751;28;20042;-56
2023/08/12 05:06:20;;;;;;;6.70;5.25;;;21.90;78.50;;;23.49;55.22;97805.91;5030721;28;20345;-54
2023/08/12 05:08:47;;;;;;;6.40;4.57;;;21.90;78.60;;;23.52;55.13;97796.47;5031127;28;20045;-51
2023/08/12 05:11:15;;;;;;;5.65;4.30;;;21.90;78.60;;;23.55;55.61;97798.69;5030434;28;20041;-53
2023/08/12 05:13:44;;;;;;;5.75;5.25;;;22.00;79.70;;;23.56;55.87;97797.63;5030873;28;20041;-53
2023/08/12 05:16:14;;;;;;;5.10;4.60;;;22.00;80.40;;;23.56;55.96;97793.00;5031110;28;20046;-58
2023/08/12 05:18:42;;;;;;;5.32;4.82;;;22.00;80.80;;;23.57;55.99;97794.69;5030995;28;20057;-59
2023/08/12 05:21:09;;;;;;;8.65;5.82;;;22.00;81.10;;;23.57;56.55;97805.53;5030352;28;20041;-57
2023/08/12 05:23:37;;;;;;;5.53;4.68;;;22.00;81.70;;;23.58;56.74;97809.06;5031620;28;20060;-56
2023/08/12 05:26:05;;;;;;;5.25;4.40;;;22.00;82.30;;;23.59;56.48;97811.56;5031091;28;20406;-59
2023/08/12 05:28:32;;;;;;;5.32;4.32;;;22.10;82.50;;;23.62;56.97;97798.56;5031772;28;20045;-57
2023/08/12 05:31:00;;;;;;;7.22;4.50;;;22.10;83.30;;;23.65;57.08;97795.34;5014086;28;20053;-57
2023/08/12 05:33:27;;;;;;;5.05;4.55;;;22.10;84.10;;;23.68;57.55;97789.44;5031804;28;20046;-58
2023/08/12 05:35:55;;;;;;;5.47;4.38;;;22.20;84.80;;;23.73;57.76;97800.38;5023813;28;20048;-59
2023/08/12 05:38:23;;;;;;;5.28;4.78;;;22.20;85.00;;;23.75;56.93;97806.44;5031360;28;20050;-59
2023/08/12 05:40:50;;;;;;;5.85;5.25;;;22.30;84.00;;;23.77;56.94;97821.41;5031511;28;20052;-57
2023/08/12 05:43:18;;;;;;;5.25;4.75;;;22.30;83.50;;;23.78;57.36;97817.66;5031183;28;20048;-57
2023/08/12 05:45:45;;;;;;;6.88;4.82;;;22.30;84.50;;;23.79;57.69;97804.91;5031452;28;20048;-58
2023/08/12 05:48:13;;;;;;;6.05;5.47;;;22.30;85.10;;;23.82;58.23;97801.69;5031333;28;20041;-60
2023/08/12 05:50:41;;;;;;;5.82;5.22;;;22.30;86.50;;;23.83;58.25;97800.63;5031460;28;20049;-60
2023/08/12 05:53:08;;;;;;;6.80;5.45;;;22.30;87.20;;;23.83;58.73;97797.91;5031575;28;20052;-60
2023/08/12 05:55:36;;;;;;;6.50;5.10;;;22.30;88.20;;;23.86;58.72;97788.44;5031492;28;20493;-59
2023/08/12 05:58:04;;;;;;;7.65;6.10;;;22.40;88.70;;;23.87;58.56;97795.53;5031242;28;20045;-60
2023/08/12 06:00:32;;;;;;;7.85;5.15;;;22.40;89.40;;;23.85;59.13;97790.34;5031212;28;20053;-58
2023/08/12 06:03:00;;;;;;;6.03;4.93;;;22.30;89.80;;;23.83;58.89;97788.94;5029692;28;20061;-57
2023/08/12 06:05:27;;;;;;;7.30;5.25;;;22.30;89.40;;;23.80;58.45;97784.78;5031335;28;20053;-58
2023/08/12 06:07:55;;;;;;;8.80;5.65;;;22.20;88.90;;;23.75;58.48;97793.66;5030580;28;20420;-56
2023/08/12 06:10:23;;;;;;;6.93;6.00;;;22.10;89.00;;;23.71;58.77;97787.06;5030944;28;20048;-55
2023/08/12 06:12:50;;;;;;;7.85;5.43;;;22.10;89.80;;;23.69;59.15;97783.75;5031344;28;20046;-55
2023/08/12 06:15:18;;;;;;;5.88;5.25;;;22.10;90.60;;;23.68;59.54;97781.28;5030973;28;20053;-60
2023/08/12 06:17:45;;;;;;;5.65;5.13;;;22.00;92.20;;;23.64;59.81;97778.22;5036404;28;20068;-58
2023/08/12 06:20:13;;;;;;;8.23;4.97;;;22.00;93.50;;;23.65;59.77;97787.19;5036482;28;20412;-57
2023/08/12 06:22:41;;;;;;;7.20;5.15;;;21.90;93.50;;;23.68;59.88;97792.16;5037548;28;20045;-59
2023/08/12 06:25:08;;;;;;;6.53;5.43;;;22.00;93.70;;;23.67;60.32;97791.34;5037736;28;20048;-57
2023/08/12 06:27:36;;;;;;;8.23;6.22;;;22.00;94.70;;;23.68;60.52;97797.59;5037805;28;20071;-59
2023/08/12 06:30:05;;;;;;;5.60;5.10;;;22.00;95.90;;;23.69;60.33;97794.63;5036029;28;20497;-58
2023/08/12 06:32:34;;;;;;;6.53;4.93;;;22.10;94.80;;;23.74;60.41;97794.72;5036786;28;20428;-59
2023/08/12 06:35:02;;;;;;;5.80;5.22;;;22.10;94.40;;;23.82;60.54;97803.59;5037836;28;20037;-59
2023/08/12 06:37:30;;;;;;;5.88;5.28;;;22.20;94.30;;;23.87;60.40;97801.78;5037851;28;20416;-55
2023/08/12 06:39:58;;;;;;;6.28;5.68;;;22.30;94.20;;;23.92;60.78;97798.34;5035930;28;20049;-60
2023/08/12 06:42:25;;;;;;;7.78;5.10;;;22.40;94.70;;;23.95;60.52;97803.28;5037446;28;20052;-59
2023/08/12 06:44:58;;;;;;;6.25;5.35;;;22.50;94.00;;;24.00;60.29;97808.00;5037804;28;20053;-58
2023/08/12 06:47:27;;;;;;;6.18;5.20;;;22.50;93.40;;;24.06;59.83;97804.28;5036186;28;20053;-58
2023/08/12 06:49:55;;;;;;;6.07;5.00;;;22.60;91.60;;;24.14;60.15;97812.06;5036900;28;20074;-57
2023/08/12 06:52:22;;;;;;;5.70;5.20;;;22.70;92.00;;;24.19;60.23;97803.97;5037616;28;20409;-55
2023/08/12 06:54:50;;;;;;;5.50;5.00;;;22.80;92.10;;;24.28;60.59;97801.69;5037088;28;20047;-60
2023/08/12 06:57:18;;;;;;;5.57;5.03;;;22.90;92.20;;;24.35;59.86;97811.34;5037326;28;20061;-59
2023/08/12 06:59:46;;;;;;;5.43;4.80;;;23.00;90.20;;;24.43;59.46;97806.56;5034190;28;20056;-57
2023/08/12 07:02:13;;;;;;;6.95;5.35;;;23.10;89.10;;;24.50;59.36;97812.66;5032252;28;20046;-58
2023/08/12 07:04:41;;;;;;;5.68;5.03;;;23.10;88.10;;;24.56;59.54;97811.72;5037424;28;20056;-60
2023/08/12 07:07:09;;;;;;;5.65;4.55;;;23.30;88.10;;;24.58;58.98;97811.47;5037105;28;20050;-60
2023/08/12 07:09:36;;;;;;;5.05;4.55;;;23.40;87.00;;;24.59;58.34;97822.13;5036887;28;20058;-60
2023/08/12 07:12:04;;;;;;;5.55;4.72;;;23.40;85.00;;;24.61;58.29;97819.16;5021161;28;20041;-59
2023/08/12 07:14:32;;;;;;;5.28;4.43;;;23.40;84.60;;;24.63;58.17;97814.28;5037241;28;20053;-60
2023/08/12 07:17:00;;;;;;;5.00;4.50;;;23.40;84.00;;;24.66;58.29;97813.78;5037172;28;20385;-61
2023/08/12 07:19:27;;;;;;;5.45;4.90;;;23.40;84.00;;;24.66;57.37;97811.91;5036647;28;20497;-60
2023/08/12 07:21:55;;;;;;;5.72;4.55;;;23.40;82.80;;;24.69;57.21;97816.00;5037086;28;20501;-59
2023/08/12 07:24:23;;;;;;;5.93;5.30;;;23.40;81.70;;;24.72;56.77;97799.19;5036986;28;20045;-60
2023/08/12 07:26:50;;;;;;;4.82;4.32;;;23.40;81.20;;;24.75;56.53;97799.50;5035491;28;20053;-57
2023/08/12 07:29:18;;;;;;;5.43;4.43;;;23.50;80.50;;;24.80;56.38;97803.41;5024137;28;20064;-60
2023/08/12 07:31:45;;;;;;;5.05;4.60;;;23.60;79.80;;;24.84;56.14;97799.91;5032137;28;20041;-60
2023/08/12 07:34:13;;;;;;;4.25;3.80;;;23.60;79.00;;;24.88;55.63;97797.53;5033578;28;20048;-60
2023/08/12 07:36:41;;;;;;;6.38;4.50;;;23.70;78.50;;;24.90;55.55;97807.06;5031400;28;20398;-60
2023/08/12 07:39:09;;;;;;;7.95;5.88;;;23.70;78.50;;;24.95;57.87;97801.72;5031188;28;20052;-60
2023/08/12 07:41:37;;;;;;;5.38;4.85;;;23.70;81.70;;;24.98;57.50;97799.56;5033109;28;20500;-61
2023/08/12 07:44:05;;;;;;;6.00;5.07;;;23.80;82.70;;;25.00;57.10;97800.13;5032908;28;20052;-60
2023/08/12 07:46:32;;;;;;;5.80;5.18;;;23.80;81.80;;;25.01;56.41;97791.72;5033126;28;20056;-60
2023/08/12 07:49:00;;;;;;;6.50;5.22;;;23.80;80.20;;;25.05;56.29;97792.88;5033110;28;20061;-61
2023/08/12 07:51:28;;;;;;;6.47;4.95;;;23.80;79.40;;;25.09;55.96;97794.00;5032230;28;20049;-60
2023/08/12 07:53:55;;;;;;;6.88;5.28;;;23.90;79.30;;;25.13;56.89;97800.59;5033552;28;20045;-60
2023/08/12 07:56:23;;;;;;;6.93;5.22;;;24.00;80.20;;;25.17;56.43;97798.19;5033496;28;20037;-60
2023/08/12 07:58:51;;;;;;;8.60;5.13;;;24.00;80.00;;;25.21;56.71;97795.78;5033357;28;20516;-60
2023/08/12 08:01:18;;;;;;;5.22;4.63;;;24.00;80.00;;;25.24;56.11;97789.84;5032988;28;20120;-60
2023/08/12 08:03:46;;;;;;;6.35;5.53;;;24.00;79.10;;;25.27;57.30;97792.91;5033334;28;20060;-60
2023/08/12 08:06:14;;;;;;;8.98;6.05;;;24.10;81.00;;;25.32;57.07;97787.53;5033084;28;20052;-59
2023/08/12 08:08:41;;;;;;;6.63;5.88;;;24.10;81.30;;;25.35;57.38;97797.91;5032769;28;20043;-58
2023/08/12 08:11:09;;;;;;;6.68;5.97;;;24.20;81.50;;;25.38;56.95;97784.84;5024672;28;20493;-59
2023/08/12 08:13:37;;;;;;;11.50;6.78;;;24.20;81.20;;;25.42;57.37;97795.00;5032374;28;20042;-59
2023/08/12 08:16:05;;;;;;;8.00;6.22;;;24.20;81.40;;;25.46;57.33;97798.06;5033138;28;20532;-61
2023/08/12 08:18:33;;;;;;;6.57;5.32;;;24.30;81.80;;;25.48;57.37;97780.38;5031665;28;20412;-59
2023/08/12 08:21:01;;;;;;;5.75;5.10;;;24.30;81.40;;;25.51;56.85;97790.78;5032887;28;20525;-59
2023/08/12 08:23:32;;;;;;;6.25;5.65;;;24.40;80.80;;;25.54;57.07;97795.69;5032073;28;20045;-59
2023/08/12 08:26:00;;;;;;;5.95;5.35;;;24.30;80.50;;;25.59;56.97;97794.09;5032926;28;20049;-60
2023/08/12 08:28:27;;;;;;;7.55;6.75;;;24.40;81.10;;;25.63;57.05;97803.41;5032880;28;20056;-60
2023/08/12 08:30:55;;;;;;;7.93;6.97;;;24.40;81.10;;;25.66;57.72;97794.75;5032464;28;20052;-57
2023/08/12 08:33:22;;;;;;;6.95;6.22;;;24.50;81.70;;;25.72;57.34;97793.72;5032844;28;20493;-59
2023/08/12 08:35:50;;;;;;;6.18;5.57;;;24.60;81.80;;;25.76;57.17;97791.31;5031984;28;20524;-60
2023/08/12 08:38:17;;;;;;;6.65;6.03;;;24.60;81.30;;;25.79;56.91;97786.16;5031291;28;20045;-61
2023/08/12 08:40:45;;;;;;;8.82;6.10;;;24.70;80.60;;;25.85;56.56;97785.13;5031421;28;20133;-62
2023/08/12 08:43:19;;;;;;;7.43;5.90;;;24.70;80.20;;;25.92;57.02;97785.78;5024808;28;20064;-61
2023/08/12 08:45:47;;;;;;;8.95;7.10;;;24.80;80.10;;;26.02;56.50;97793.25;5031830;28;20535;-61
2023/08/12 08:48:15;;;;;;;7.50;6.43;;;24.90;79.80;;;26.09;56.48;97793.03;5023420;28;20068;-61
2023/08/12 08:50:45;;;;;;;6.38;5.78;;;25.00;79.70;;;26.13;56.60;97789.56;5032319;28;20515;-61
2023/08/12 08:53:15;;;;;;;7.57;6.82;;;25.10;79.00;;;26.19;56.37;97789.59;5031502;28;20037;-61
2023/08/12 08:55:44;;;;;;;8.57;7.20;;;25.10;78.80;;;26.23;56.39;97790.72;5032531;28;20049;-61
2023/08/12 08:58:11;;;;;;;8.00;7.18;;;25.20;78.50;;;26.28;56.33;97794.31;5032184;28;20056;-61
2023/08/12 09:00:47;;;;;;;8.82;6.68;;;25.20;76.70;;;26.33;56.39;97793.56;5032150;28;20064;-58
2023/08/12 09:03:16;;;;;;;7.32;6.25;;;25.30;78.60;;;26.38;56.02;97792.75;5032186;28;20056;-55
2023/08/12 09:05:44;;;;;;;10.50;6.78;;;25.20;77.80;;;26.41;55.58;97790.34;5031222;28;20053;-55
2023/08/12 09:08:12;;;;;;;8.57;6.70;;;25.30;77.70;;;26.47;55.34;97788.47;5030478;28;20052;-60
2023/08/12 09:10:41;;;;;;;7.40;6.63;;;25.40;76.90;;;26.53;55.26;97793.69;5030663;28;20048;-59
2023/08/12 09:13:09;;;;;;;7.10;6.40;;;25.40;76.50;;;26.60;55.09;97799.00;5031010;28;20041;-59
2023/08/12 09:15:36;;;;;;;6.47;5.88;;;25.50;75.80;;;26.63;54.69;97787.53;5032611;28;20063;-59
2023/08/12 09:18:07;;;;;;;7.20;6.32;;;25.50;75.20;;;26.67;54.23;97796.03;5031909;28;20516;-59
2023/08/12 09:20:35;;;;;;;6.65;5.97;;;25.60;74.50;;;26.70;54.01;97790.88;5031857;28;20053;-58
2023/08/12 09:23:03;;;;;;;6.40;5.80;;;25.60;73.90;;;26.73;53.73;97800.44;5031778;28;20041;-59
2023/08/12 09:25:31;;;;;;;7.22;5.60;;;25.60;73.70;;;26.77;53.78;97787.91;5032000;28;20057;-57
2023/08/12 09:27:59;;;;;;;6.32;5.63;;;25.60;73.50;;;26.82;53.40;97785.22;5030637;28;20072;-57
2023/08/12 09:30:33;;;;;;;5.70;5.20;;;25.70;72.50;;;26.87;53.16;97778.94;5030146;28;20429;-58
2023/08/12 09:33:03;;;;;;;6.38;5.30;;;25.70;71.90;;;26.98;52.27;97788.03;5030455;28;20060;-59
2023/08/12 09:35:37;;;;;;;6.30;5.70;;;25.90;71.10;;;27.08;52.50;97785.34;5031080;28;20053;-58
2023/08/12 09:38:12;;;;;;;6.68;5.97;;;26.10;71.30;;;27.21;52.88;97784.88;5030093;28;20049;-59
2023/08/12 09:40:40;;;;;;;6.13;5.53;;;26.30;71.00;;;27.34;52.34;97774.59;5032020;28;20042;-58
2023/08/12 09:43:09;;;;;;;7.00;5.72;;;26.40;70.10;;;27.45;51.70;97770.81;5031406;28;20041;-59
2023/08/12 09:45:38;;;;;;;5.72;5.20;;;26.50;69.20;;;27.56;51.45;97758.00;5031606;28;20048;-58
2023/08/12 09:48:08;;;;;;;6.90;6.10;;;26.60;69.20;;;27.65;51.57;97757.22;5031286;28;20437;-56
2023/08/12 09:50:36;;;;;;;5.43;4.93;;;26.70;69.00;;;27.76;51.43;97749.03;5013251;28;20197;-58
2023/08/12 09:53:04;;;;;;;7.00;5.47;;;26.90;68.60;;;27.82;50.89;97740.56;5031578;28;20420;-58
2023/08/12 09:55:36;;;;;;;6.47;5.90;;;26.90;68.00;;;27.88;50.62;97730.50;5031405;28;20103;-58
2023/08/12 09:58:07;;;;;;;7.03;5.38;;;27.00;67.80;;;27.95;50.76;97732.97;5031155;28;20045;-58
2023/08/12 10:00:35;;;;;;;6.90;5.10;;;27.00;67.10;;;28.02;50.20;97737.06;5029375;28;20082;-58
2023/08/12 10:03:05;;;;;;;8.18;5.97;;;27.10;67.30;;;28.06;50.33;97738.16;5031101;28;20038;-53
2023/08/12 10:05:34;;;;;;;6.20;5.22;;;27.20;67.10;;;28.10;50.01;97740.38;5030354;28;20042;-53
2023/08/12 10:08:03;;;;;;;5.78;5.25;;;27.20;66.60;;;28.11;50.09;97737.38;5031339;28;20053;-54
2023/08/12 10:10:34;;;;;;;7.13;5.97;;;27.10;66.60;;;28.13;49.50;97726.97;5029889;28;20053;-55
2023/08/12 10:13:06;;;;;;;6.15;5.60;;;27.20;65.50;;;28.17;49.53;97733.53;5021868;28;20053;-55
2023/08/12 10:15:35;;;;;;;8.10;5.90;;;27.20;65.70;;;28.23;49.58;97732.44;5031177;28;20046;-54
2023/08/12 10:18:05;;;;;;;8.45;5.53;;;27.30;65.60;;;28.26;49.63;97734.59;5031197;28;20398;-55
2023/08/12 10:20:39;;;;;;;6.85;5.22;;;27.30;65.80;;;28.30;50.33;97734.88;5031069;28;20064;-54
2023/08/12 10:23:10;;;;;;;7.05;6.38;;;27.40;66.60;;;28.26;50.70;97736.53;5031033;28;20521;-55
2023/08/12 10:25:41;;;;;;;6.18;5.68;;;27.40;67.10;;;28.24;50.54;97738.72;5030134;28;20492;-55